createdAt,value
2023-04-10T00:02:24.808Z,2.45
2023-04-10T00:04:51.809Z,2.53
2023-04-10T00:07:18.743Z,2.61
2023-04-10T00:09:45.699Z,2.62
2023-04-10T00:12:12.464Z,2.52
2023-04-10T00:14:39.230Z,2.42
2023-04-10T00:17:06.066Z,2.37
2023-04-10T00:19:32.748Z,2.36
2023-04-10T00:21:59.585Z,2.39
2023-04-10T00:24:26.344Z,2.38
2023-04-10T00:26:53.034Z,2.38
2023-04-10T00:29:19.815Z,2.39
2023-04-10T00:31:46.539Z,2.41
2023-04-10T00:34:14.185Z,2.46
2023-04-10T00:36:41.114Z,2.52
2023-04-10T00:39:09.348Z,2.55
2023-04-10T00:41:36.092Z,2.58
2023-04-10T00:44:03.186Z,2.57
2023-04-10T00:46:31.842Z,2.56
2023-04-10T00:48:58.873Z,2.52
2023-04-10T00:51:26.585Z,2.46
2023-04-10T00:53:55.177Z,2.39
2023-04-10T00:56:24.174Z,2.37
2023-04-10T00:58:51.119Z,2.34
2023-04-10T01:01:17.951Z,2.29
2023-04-10T01:03:45.659Z,2.27
2023-04-10T01:06:24.304Z,2.27
2023-04-10T01:08:57.141Z,2.22
2023-04-10T01:11:32.634Z,2.18
2023-04-10T01:14:02.356Z,2.11
2023-04-10T01:16:36.994Z,2.09
2023-04-10T01:19:35.669Z,2.05
2023-04-10T01:22:04.187Z,2.00
2023-04-10T01:25:18.036Z,1.97
2023-04-10T01:28:07.261Z,1.84
2023-04-10T01:30:36.583Z,1.73
2023-04-10T01:33:05.917Z,1.60
2023-04-10T01:35:35.062Z,1.57
2023-04-10T01:38:05.220Z,1.60
2023-04-10T01:40:32.990Z,1.64
2023-04-10T01:43:01.941Z,1.71
2023-04-10T01:45:31.692Z,1.72
2023-04-10T01:47:58.678Z,1.69
2023-04-10T01:50:28.654Z,1.66
2023-04-10T01:52:57.492Z,1.57
2023-04-10T01:55:26.704Z,1.55
2023-04-10T01:57:54.579Z,1.53
2023-04-10T02:00:21.311Z,1.49
2023-04-10T02:02:48.212Z,1.52
2023-04-10T02:05:16.935Z,1.52
2023-04-10T02:08:12.203Z,1.55
2023-04-10T02:10:52.390Z,1.51
2023-04-10T02:13:22.450Z,1.52
2023-04-10T02:15:51.721Z,1.58
2023-04-10T02:18:20.016Z,1.60
2023-04-10T02:20:47.077Z,1.53
2023-04-10T02:23:17.093Z,1.52
2023-04-10T02:25:43.852Z,1.51
2023-04-10T02:28:10.681Z,1.49
2023-04-10T02:30:37.434Z,1.47
2023-04-10T02:33:04.343Z,1.46
2023-04-10T02:35:31.598Z,1.43
2023-04-10T02:37:58.310Z,1.40
2023-04-10T02:40:25.129Z,1.42
2023-04-10T02:42:51.801Z,1.41
2023-04-10T02:45:18.569Z,1.37
2023-04-10T02:47:45.350Z,1.33
2023-04-10T02:50:12.174Z,1.38
2023-04-10T02:52:38.998Z,1.40
2023-04-10T02:55:06.164Z,1.48
2023-04-10T02:57:32.882Z,1.48
2023-04-10T02:59:59.519Z,1.50
2023-04-10T03:02:26.602Z,1.50
2023-04-10T03:04:53.763Z,1.48
2023-04-10T03:07:20.528Z,1.46
2023-04-10T03:09:47.319Z,1.45
2023-04-10T03:12:14.006Z,1.46
2023-04-10T03:14:41.552Z,1.43
2023-04-10T03:17:08.297Z,1.41
2023-04-10T03:19:35.058Z,1.26
2023-04-10T03:22:02.314Z,1.10
2023-04-10T03:24:29.091Z,1.01
2023-04-10T03:26:57.258Z,0.95
2023-04-10T03:29:24.035Z,0.91
2023-04-10T03:31:51.071Z,0.93
2023-04-10T03:34:18.624Z,0.98
2023-04-10T03:36:45.579Z,1.01
2023-04-10T03:39:12.324Z,1.04
2023-04-10T03:41:38.973Z,1.05
2023-04-10T03:44:05.773Z,1.05
2023-04-10T03:46:32.532Z,1.05
2023-04-10T03:48:59.199Z,1.03
2023-04-10T03:51:26.888Z,0.94
2023-04-10T03:53:53.788Z,0.87
2023-04-10T03:56:20.826Z,0.85
2023-04-10T03:58:47.508Z,0.85
2023-04-10T04:01:14.211Z,0.91
2023-04-10T04:03:41.129Z,0.94
2023-04-10T04:06:07.922Z,0.98
2023-04-10T04:08:36.436Z,0.98
2023-04-10T04:11:03.226Z,0.97
2023-04-10T04:13:29.878Z,0.94
2023-04-10T04:15:56.604Z,0.94
2023-04-10T04:18:23.361Z,0.95
2023-04-10T04:20:50.012Z,0.98
2023-04-10T04:23:17.828Z,0.98
2023-04-10T04:25:44.495Z,0.93
2023-04-10T04:28:13.729Z,0.90
2023-04-10T04:30:40.451Z,0.90
2023-04-10T04:33:07.175Z,0.87
2023-04-10T04:35:34.018Z,0.88
2023-04-10T04:38:00.825Z,0.91
2023-04-10T04:40:27.497Z,0.95
2023-04-10T04:42:54.202Z,0.99
2023-04-10T04:45:22.052Z,1.00
2023-04-10T04:47:48.826Z,0.98
2023-04-10T04:50:15.724Z,0.94
2023-04-10T04:52:44.176Z,0.90
2023-04-10T04:55:10.882Z,0.89
2023-04-10T04:57:37.575Z,0.91
2023-04-10T05:00:04.960Z,0.94
2023-04-10T05:02:31.806Z,1.02
2023-04-10T05:04:58.649Z,1.01
2023-04-10T05:07:25.406Z,0.98
2023-04-10T05:09:52.258Z,0.94
2023-04-10T05:12:18.976Z,0.94
2023-04-10T05:14:46.711Z,0.91
2023-04-10T05:17:15.098Z,0.95
2023-04-10T05:19:41.805Z,0.98
2023-04-10T05:22:08.525Z,1.01
2023-04-10T05:24:35.206Z,1.05
2023-04-10T05:27:02.278Z,1.08
2023-04-10T05:29:29.065Z,1.10
2023-04-10T05:31:55.721Z,1.16
2023-04-10T05:34:22.533Z,1.18
2023-04-10T05:36:49.204Z,1.24
2023-04-10T05:39:16.719Z,1.32
2023-04-10T05:41:43.394Z,1.40
2023-04-10T05:44:10.147Z,1.48
2023-04-10T05:46:36.930Z,1.54
2023-04-10T05:49:03.712Z,1.61
2023-04-10T05:51:30.370Z,1.68
2023-04-10T05:53:57.074Z,1.75
2023-04-10T05:56:23.709Z,1.78
2023-04-10T05:58:50.658Z,1.86
2023-04-10T06:01:17.572Z,1.95
2023-04-10T06:03:44.292Z,2.02
2023-04-10T06:06:11.064Z,2.08
2023-04-10T06:08:37.738Z,2.12
2023-04-10T06:11:04.528Z,2.20
2023-04-10T06:13:32.451Z,2.28
2023-04-10T06:15:59.256Z,2.36
2023-04-10T06:18:26.039Z,2.46
2023-04-10T06:20:52.686Z,2.54
2023-04-10T06:23:19.312Z,2.61
2023-04-10T06:25:45.973Z,2.70
2023-04-10T06:28:12.651Z,2.76
2023-04-10T06:30:39.338Z,2.84
2023-04-10T06:33:06.414Z,2.93
2023-04-10T06:35:33.237Z,2.99
2023-04-10T06:37:59.965Z,3.06
2023-04-10T06:40:29.435Z,3.16
2023-04-10T06:42:56.349Z,3.25
2023-04-10T06:45:23.214Z,3.36
2023-04-10T06:47:50.046Z,3.46
2023-04-10T06:50:16.754Z,3.57
2023-04-10T06:52:44.887Z,3.69
2023-04-10T06:55:13.086Z,3.80
2023-04-10T06:57:40.700Z,3.92
2023-04-10T07:00:08.162Z,4.06
2023-04-10T07:02:35.064Z,4.18
2023-04-10T07:05:01.772Z,4.32
2023-04-10T07:07:29.321Z,4.47
2023-04-10T07:09:57.917Z,4.61
2023-04-10T07:12:24.684Z,4.75
2023-04-10T07:14:51.358Z,4.88
2023-04-10T07:17:17.987Z,5.02
2023-04-10T07:19:44.619Z,5.15
2023-04-10T07:22:11.711Z,5.26
2023-04-10T07:24:38.399Z,5.37
2023-04-10T07:27:05.114Z,5.47
2023-04-10T07:29:31.837Z,5.61
2023-04-10T07:31:58.744Z,5.70
2023-04-10T07:34:26.160Z,5.84
2023-04-10T07:36:53.224Z,5.96
2023-04-10T07:39:19.905Z,6.10
2023-04-10T07:41:46.593Z,6.25
2023-04-10T07:44:13.351Z,6.42
2023-04-10T07:46:40.429Z,6.60
2023-04-10T07:49:08.696Z,6.80
2023-04-10T07:51:35.733Z,6.94
2023-04-10T07:54:04.223Z,7.06
2023-04-10T07:56:34.011Z,7.19
2023-04-10T07:59:03.298Z,7.37
2023-04-10T08:01:29.960Z,7.53
2023-04-10T08:03:56.864Z,7.65
2023-04-10T08:06:23.761Z,7.78
2023-04-10T08:08:52.509Z,7.91
2023-04-10T08:11:28.008Z,8.10
2023-04-10T08:14:01.651Z,8.39
2023-04-10T08:16:33.116Z,8.70
2023-04-10T08:19:00.983Z,9.04
2023-04-10T08:21:29.566Z,9.43
2023-04-10T08:23:58.229Z,9.82
2023-04-10T08:26:26.516Z,10.18
2023-04-10T08:28:56.100Z,10.46
2023-04-10T08:31:24.818Z,10.74
2023-04-10T08:33:52.233Z,11.00
2023-04-10T08:36:20.446Z,11.13
2023-04-10T08:38:50.862Z,11.18
2023-04-10T08:41:19.285Z,11.28
2023-04-10T08:43:46.592Z,11.30
2023-04-10T08:46:17.010Z,11.26
2023-04-10T08:49:02.801Z,11.12
2023-04-10T08:51:37.052Z,10.95
2023-04-10T08:54:09.795Z,10.78
2023-04-10T08:56:41.208Z,10.72
2023-04-10T08:59:08.388Z,10.60
2023-04-10T09:01:36.464Z,10.57
2023-04-10T09:04:03.497Z,10.55
2023-04-10T09:06:31.573Z,10.58
2023-04-10T09:11:52.315Z,10.64
2023-04-10T09:14:23.199Z,10.66
2023-04-10T09:16:51.844Z,10.70
2023-04-10T09:19:36.730Z,10.76
2023-04-10T09:22:03.584Z,10.85
2023-04-10T09:24:30.463Z,10.97
2023-04-10T09:26:57.111Z,11.15
2023-04-10T09:29:25.819Z,11.71
2023-04-10T09:31:52.632Z,12.36
2023-04-10T09:34:23.095Z,12.98
2023-04-10T09:36:58.048Z,13.47
2023-04-10T09:39:36.233Z,13.83
2023-04-10T09:42:03.012Z,13.99
2023-04-10T09:44:34.531Z,14.04
2023-04-10T09:47:24.614Z,13.91
2023-04-10T09:49:53.542Z,13.77
2023-04-10T09:52:22.892Z,13.52
2023-04-10T09:54:49.554Z,13.26
2023-04-10T09:57:20.778Z,12.97
2023-04-10T09:59:50.880Z,12.78
2023-04-10T10:02:22.379Z,12.65
2023-04-10T10:04:50.546Z,12.53
2023-04-10T10:07:21.781Z,12.50
2023-04-10T10:09:50.019Z,12.49
2023-04-10T10:12:25.789Z,12.60
2023-04-10T10:15:03.121Z,12.64
2023-04-10T10:17:38.989Z,12.66
2023-04-10T10:20:10.761Z,12.74
2023-04-10T10:22:38.233Z,12.90
2023-04-10T10:25:05.282Z,13.00
2023-04-10T10:27:33.066Z,13.08
2023-04-10T10:30:05.206Z,13.15
2023-04-10T10:32:36.617Z,13.15
2023-04-10T10:35:03.695Z,13.15
2023-04-10T10:37:30.478Z,13.07
2023-04-10T10:40:14.518Z,13.01
2023-04-10T10:42:48.922Z,13.11
2023-04-10T10:45:19.609Z,13.20
2023-04-10T10:47:51.392Z,13.25
2023-04-10T10:50:18.269Z,13.28
2023-04-10T10:52:50.054Z,13.33
2023-04-10T10:55:22.805Z,13.31
2023-04-10T10:57:56.299Z,13.32
2023-04-10T11:00:24.688Z,13.35
2023-04-10T11:03:10.752Z,13.35
2023-04-10T11:05:58.651Z,13.37
2023-04-10T11:08:35.391Z,13.43
2023-04-10T11:11:08.371Z,13.54
2023-04-10T11:13:36.738Z,13.61
2023-04-10T11:16:05.351Z,13.74
2023-04-10T11:18:55.836Z,13.85
2023-04-10T11:21:29.454Z,13.95
2023-04-10T11:23:56.142Z,14.02
2023-04-10T11:26:39.695Z,14.03
2023-04-10T11:29:14.395Z,14.01
2023-04-10T11:31:41.104Z,14.07
2023-04-10T11:34:09.066Z,14.09
2023-04-10T11:36:39.891Z,14.13
2023-04-10T11:39:09.156Z,14.10
2023-04-10T11:41:37.484Z,14.19
2023-04-10T11:44:07.120Z,14.26
2023-04-10T11:46:38.603Z,14.34
2023-04-10T11:49:07.148Z,14.52
2023-04-10T11:51:34.046Z,14.61
2023-04-10T11:54:17.997Z,14.59
2023-04-10T11:56:47.243Z,14.59
2023-04-10T11:59:19.961Z,14.60
2023-04-10T12:01:47.425Z,14.64
2023-04-10T12:04:24.437Z,14.60
2023-04-10T12:06:57.146Z,14.60
2023-04-10T12:09:24.226Z,14.67
2023-04-10T12:11:51.980Z,14.73
2023-04-10T12:14:19.790Z,14.75
2023-04-10T12:16:46.880Z,14.81
2023-04-10T12:19:15.917Z,14.89
2023-04-10T12:21:43.590Z,15.01
2023-04-10T12:24:10.411Z,15.14
2023-04-10T12:26:37.473Z,15.21
2023-04-10T12:29:06.440Z,15.17
2023-04-10T12:31:36.516Z,15.09
2023-04-10T12:34:05.506Z,15.06
2023-04-10T12:36:35.305Z,15.11
2023-04-10T12:39:06.187Z,15.11
2023-04-10T12:41:34.460Z,15.11
2023-04-10T12:44:12.848Z,15.12
2023-04-10T12:46:40.727Z,15.13
2023-04-10T12:49:16.116Z,15.13
2023-04-10T12:51:52.947Z,15.11
2023-04-10T12:54:36.378Z,15.08
2023-04-10T12:57:06.903Z,15.05
2023-04-10T12:59:33.852Z,15.05
2023-04-10T13:02:00.663Z,15.13
2023-04-10T13:04:29.082Z,15.19
2023-04-10T13:06:55.783Z,15.25
2023-04-10T13:09:22.481Z,15.29
2023-04-10T13:11:51.535Z,15.32
2023-04-10T13:14:18.703Z,15.33
2023-04-10T13:16:45.610Z,15.36
2023-04-10T13:19:13.040Z,15.35
2023-04-10T13:21:39.695Z,15.32
2023-04-10T13:24:06.389Z,15.24
2023-04-10T13:26:33.108Z,15.14
2023-04-10T13:28:59.768Z,15.06
2023-04-10T13:31:26.426Z,14.95
2023-04-10T13:33:53.086Z,14.83
2023-04-10T13:36:19.984Z,14.72
2023-04-10T13:38:46.731Z,14.59
2023-04-10T13:41:13.373Z,14.53
2023-04-10T13:43:40.042Z,14.44
2023-04-10T13:46:06.963Z,14.33
2023-04-10T13:48:40.102Z,14.25
2023-04-10T13:51:20.400Z,14.16
2023-04-10T13:53:47.032Z,14.04
2023-04-10T13:56:13.687Z,13.93
2023-04-10T13:58:40.408Z,13.82
2023-04-10T14:01:07.754Z,13.72
2023-04-10T14:03:34.594Z,13.65
2023-04-10T14:06:01.326Z,13.64
2023-04-10T14:08:28.065Z,13.61
2023-04-10T14:10:54.729Z,13.57
2023-04-10T14:13:21.416Z,13.48
2023-04-10T14:15:48.233Z,13.38
2023-04-10T14:18:17.669Z,13.24
2023-04-10T14:20:44.780Z,13.14
2023-04-10T14:23:18.305Z,13.10
2023-04-10T14:25:46.046Z,13.02
2023-04-10T14:28:17.717Z,12.91
2023-04-10T14:30:49.476Z,12.74
2023-04-10T14:33:20.009Z,12.65
2023-04-10T14:35:47.380Z,12.65
2023-04-10T14:38:14.309Z,12.79
2023-04-10T14:40:41.246Z,12.79
2023-04-10T14:43:08.631Z,12.74
2023-04-10T14:45:35.499Z,12.85
2023-04-10T14:48:02.822Z,13.03
2023-04-10T14:50:32.165Z,13.18
2023-04-10T14:53:02.486Z,13.31
2023-04-10T14:55:30.540Z,13.37
2023-04-10T14:57:58.664Z,13.36
2023-04-10T15:00:26.111Z,13.33
2023-04-10T15:02:52.996Z,13.20
2023-04-10T15:05:19.909Z,13.06
2023-04-10T15:07:46.583Z,12.93
2023-04-10T15:10:13.229Z,13.00
2023-04-10T15:12:39.975Z,13.02
2023-04-10T15:15:07.441Z,12.92
2023-04-10T15:17:34.266Z,12.85
2023-04-10T15:20:01.104Z,12.83
2023-04-10T15:22:29.318Z,12.68
2023-04-10T15:24:56.015Z,12.54
2023-04-10T15:27:22.772Z,12.42
2023-04-10T15:29:49.820Z,12.23
2023-04-10T15:32:16.686Z,12.01
2023-04-10T15:34:44.528Z,11.91
2023-04-10T15:37:11.783Z,11.87
2023-04-10T15:39:38.518Z,11.71
2023-04-10T15:42:06.183Z,11.57
2023-04-10T15:44:32.921Z,11.48
2023-04-10T15:46:59.591Z,11.45
2023-04-10T15:49:36.398Z,11.32
2023-04-10T15:52:08.398Z,11.16
2023-04-10T15:54:35.582Z,11.09
2023-04-10T15:57:04.179Z,11.05
2023-04-10T15:59:32.081Z,11.04
2023-04-10T16:01:58.838Z,11.03
2023-04-10T16:04:25.825Z,11.13
2023-04-10T16:06:52.606Z,11.32
2023-04-10T16:11:50.236Z,11.55
2023-04-10T16:14:19.122Z,11.51
2023-04-10T16:16:46.218Z,11.39
2023-04-10T16:19:12.970Z,11.28
2023-04-10T16:21:40.205Z,11.19
2023-04-10T16:24:07.155Z,11.14
2023-04-10T16:26:34.008Z,11.14
2023-04-10T16:29:00.950Z,11.12
2023-04-10T16:31:27.666Z,11.15
2023-04-10T16:33:54.378Z,11.20
2023-04-10T16:36:21.037Z,11.18
2023-04-10T16:38:49.976Z,11.13
2023-04-10T16:41:21.082Z,11.05
2023-04-10T16:43:47.985Z,10.96
2023-04-10T16:46:15.069Z,10.87
2023-04-10T16:48:41.978Z,10.75
2023-04-10T16:51:15.869Z,10.65
2023-04-10T16:53:42.563Z,10.57
2023-04-10T16:56:09.587Z,10.50
2023-04-10T16:58:37.286Z,10.39
2023-04-10T17:01:18.271Z,10.28
2023-04-10T17:03:47.490Z,10.17
2023-04-10T17:06:16.035Z,10.09
2023-04-10T17:08:43.086Z,10.11
2023-04-10T17:11:12.563Z,10.12
2023-04-10T17:13:40.541Z,10.08
2023-04-10T17:16:08.183Z,9.99
2023-04-10T17:18:34.900Z,9.90
2023-04-10T17:21:01.565Z,9.83
2023-04-10T17:23:28.380Z,9.78
2023-04-10T17:25:55.114Z,9.68
2023-04-10T17:28:21.876Z,9.62
2023-04-10T17:30:48.568Z,9.55
2023-04-10T17:33:15.471Z,9.47
2023-04-10T17:35:42.514Z,9.42
2023-04-10T17:38:09.225Z,9.35
2023-04-10T17:40:37.270Z,9.28
2023-04-10T17:43:04.202Z,9.21
2023-04-10T17:45:30.929Z,9.14
2023-04-10T17:47:57.682Z,9.01
2023-04-10T17:50:24.541Z,8.92
2023-04-10T17:52:51.195Z,8.83
2023-04-10T17:55:20.507Z,8.75
2023-04-10T17:57:50.738Z,8.70
2023-04-10T18:00:20.542Z,8.62
2023-04-10T18:02:50.528Z,8.57
2023-04-10T18:05:17.306Z,8.48
2023-04-10T18:07:44.088Z,8.40
2023-04-10T18:10:11.605Z,8.34
2023-04-10T18:12:38.266Z,8.28
2023-04-10T18:15:05.576Z,8.20
2023-04-10T18:17:32.388Z,8.16
2023-04-10T18:19:59.132Z,8.10
2023-04-10T18:22:25.825Z,8.05
2023-04-10T18:24:52.571Z,8.00
2023-04-10T18:27:19.487Z,7.93
2023-04-10T18:29:46.361Z,7.89
2023-04-10T18:32:13.138Z,7.86
2023-04-10T18:34:39.996Z,7.80
2023-04-10T18:37:09.026Z,7.77
2023-04-10T18:39:38.290Z,7.75
2023-04-10T18:42:08.339Z,7.72
2023-04-10T18:44:35.115Z,7.68
2023-04-10T18:47:04.899Z,7.68
2023-04-10T18:49:31.937Z,7.60
2023-04-10T18:51:58.658Z,7.53
2023-04-10T18:54:27.512Z,7.47
2023-04-10T18:56:54.445Z,7.40
2023-04-10T18:59:21.140Z,7.34
2023-04-10T19:01:47.866Z,7.26
2023-04-10T19:04:15.001Z,7.18
2023-04-10T19:06:43.803Z,7.11
2023-04-10T19:09:10.434Z,7.07
2023-04-10T19:11:37.669Z,7.00
2023-04-10T19:14:04.403Z,6.98
2023-04-10T19:19:01.500Z,6.92
2023-04-10T19:21:28.545Z,6.91
2023-04-10T19:23:55.437Z,6.88
2023-04-10T19:26:22.198Z,6.84
2023-04-10T19:28:48.906Z,6.78
2023-04-10T19:31:15.965Z,6.68
2023-04-10T19:33:42.744Z,6.63
2023-04-10T19:36:09.618Z,6.60
2023-04-10T19:38:36.475Z,6.61
2023-04-10T19:41:03.199Z,6.57
2023-04-10T19:43:30.124Z,6.54
2023-04-10T19:45:59.864Z,6.53
2023-04-10T19:48:26.663Z,6.50
2023-04-10T19:50:53.363Z,6.47
2023-04-10T19:53:20.111Z,6.43
2023-04-10T19:55:46.845Z,6.36
2023-04-10T19:58:30.128Z,6.33
2023-04-10T20:01:04.763Z,6.24
2023-04-10T20:03:32.857Z,6.14
2023-04-10T20:06:00.782Z,6.08
2023-04-10T20:08:27.576Z,6.06
2023-04-10T20:10:56.636Z,5.98
2023-04-10T20:13:24.514Z,5.93
2023-04-10T20:15:51.540Z,5.93
2023-04-10T20:18:18.264Z,5.89
2023-04-10T20:20:45.537Z,5.84
2023-04-10T20:23:14.958Z,5.78
2023-04-10T20:25:41.705Z,5.67
2023-04-10T20:28:08.418Z,5.57
2023-04-10T20:30:37.954Z,5.52
2023-04-10T20:33:05.281Z,5.49
2023-04-10T20:35:32.166Z,5.45
2023-04-10T20:37:58.845Z,5.40
2023-04-10T20:40:25.644Z,5.34
2023-04-10T20:42:53.515Z,5.27
2023-04-10T20:45:20.329Z,5.23
2023-04-10T20:47:47.031Z,5.20
2023-04-10T20:50:13.766Z,5.13
2023-04-10T20:52:40.991Z,5.14
2023-04-10T20:55:08.112Z,5.13
2023-04-10T20:57:34.773Z,5.15
2023-04-10T21:00:01.461Z,5.15
2023-04-10T21:02:28.282Z,5.16
2023-04-10T21:04:54.965Z,5.15
2023-04-10T21:07:21.655Z,5.14
2023-04-10T21:09:48.293Z,5.09
2023-04-10T21:12:14.932Z,5.06
2023-04-10T21:14:41.647Z,5.01
2023-04-10T21:17:08.329Z,4.91
2023-04-10T21:19:35.015Z,4.84
2023-04-10T21:22:01.740Z,4.80
2023-04-10T21:24:28.783Z,4.75
2023-04-10T21:26:55.433Z,4.69
2023-04-10T21:29:22.107Z,4.61
2023-04-10T21:31:50.513Z,4.58
2023-04-10T21:34:17.453Z,4.54
2023-04-10T21:36:44.121Z,4.51
2023-04-10T21:39:10.899Z,4.49
2023-04-10T21:41:38.442Z,4.47
2023-04-10T21:44:08.842Z,4.44
2023-04-10T21:46:35.588Z,4.39
2023-04-10T21:49:03.110Z,4.35
2023-04-10T21:51:29.900Z,4.32
2023-04-10T21:53:56.687Z,4.25
2023-04-10T21:56:23.349Z,4.20
2023-04-10T21:58:50.168Z,4.09
2023-04-10T22:01:16.854Z,4.13
2023-04-10T22:03:43.636Z,4.11
2023-04-10T22:06:10.730Z,4.10
2023-04-10T22:08:41.374Z,4.04
2023-04-10T22:11:08.553Z,3.98
2023-04-10T22:13:35.246Z,3.93
2023-04-10T22:16:02.651Z,3.89
2023-04-10T22:18:29.555Z,3.86
2023-04-10T22:20:56.326Z,3.87
2023-04-10T22:23:23.972Z,3.88
2023-04-10T22:25:50.851Z,3.87
2023-04-10T22:28:17.623Z,3.85
2023-04-10T22:30:44.330Z,3.80
2023-04-10T22:33:12.062Z,3.72
2023-04-10T22:35:38.800Z,3.66
2023-04-10T22:38:05.654Z,3.60
2023-04-10T22:40:32.364Z,3.53
2023-04-10T22:42:59.057Z,3.47
2023-04-10T22:45:25.848Z,3.39
2023-04-10T22:47:52.525Z,3.36
2023-04-10T22:50:19.213Z,3.37
2023-04-10T22:52:45.892Z,3.37
2023-04-10T22:55:12.645Z,3.38
2023-04-10T22:57:39.384Z,3.38
2023-04-10T23:00:07.046Z,3.40
2023-04-10T23:02:33.868Z,3.40
2023-04-10T23:05:00.700Z,3.41
2023-04-10T23:07:27.995Z,3.36
2023-04-10T23:09:54.815Z,3.30
2023-04-10T23:12:21.466Z,3.24
2023-04-10T23:14:48.192Z,3.19
2023-04-10T23:17:14.910Z,3.17
2023-04-10T23:19:41.641Z,3.14
2023-04-10T23:22:08.299Z,3.13
2023-04-10T23:24:35.043Z,3.08
2023-04-10T23:27:01.869Z,3.04
2023-04-10T23:29:28.512Z,3.01
2023-04-10T23:31:55.221Z,2.97
2023-04-10T23:34:21.950Z,2.96
2023-04-10T23:36:48.683Z,2.96
2023-04-10T23:39:15.588Z,2.97
2023-04-10T23:41:42.657Z,2.98
2023-04-10T23:44:09.585Z,2.96
2023-04-10T23:46:36.282Z,2.97
2023-04-10T23:49:03.007Z,2.94
2023-04-10T23:51:32.134Z,2.87
2023-04-10T23:53:59.198Z,2.83
2023-04-10T23:56:29.290Z,2.74
2023-04-10T23:58:56.497Z,2.71
